Time;durP1;ratioP1;P1;durP2;ratioP2;P2;SDS_P1;SDS_P2;PMS_P1;PMS_P2;Temp;Humidity;BMP_temperature;BMP_pressure;BME280_temperature;BME280_humidity;BME280_pressure;Samples;Min_cycle;Max_cycle;Signal;HPM_P1;HPM_P2
2024/01/02 00:01:47;;;;;;;1.63;0.90;;;21.10;79.60;;;;;;5014855;28;20199;-61
2024/01/02 00:04:15;;;;;;;2.63;1.38;;;21.00;79.50;;;;;;5014861;28;20492;-61
2024/01/02 00:06:49;;;;;;;1.63;1.17;;;21.00;79.40;;;;;;4998787;28;20200;-61
2024/01/02 00:09:16;;;;;;;1.65;0.80;;;21.00;79.40;;;;;;5006888;28;20211;-58
2024/01/02 00:11:51;;;;;;;1.40;1.00;;;21.00;79.30;;;;;;5008877;28;20659;-62
2024/01/02 00:14:18;;;;;;;1.30;1.00;;;21.00;79.40;;;;;;5003143;28;20520;-61
2024/01/02 00:16:45;;;;;;;1.30;1.07;;;21.00;79.70;;;;;;5002214;28;20213;-61
2024/01/02 00:19:22;;;;;;;2.13;1.08;;;21.00;79.70;;;;;;5004594;28;21043;-62
2024/01/02 00:21:52;;;;;;;1.30;0.90;;;21.00;79.80;;;;;;5011849;28;20221;-62
2024/01/02 00:24:19;;;;;;;1.77;1.10;;;20.90;79.60;;;;;;5012873;28;20226;-61
2024/01/02 00:26:46;;;;;;;1.05;0.70;;;21.00;79.60;;;;;;5011574;28;20322;-62
2024/01/02 00:29:13;;;;;;;1.55;0.82;;;21.00;79.50;;;;;;5011938;28;20195;-61
2024/01/02 00:31:44;;;;;;;1.42;0.80;;;21.00;79.80;;;;;;5012610;28;20548;-61
2024/01/02 00:34:13;;;;;;;1.70;1.10;;;21.00;79.60;;;;;;5010925;28;20200;-61
2024/01/02 00:36:41;;;;;;;1.30;1.00;;;21.00;79.50;;;;;;5006155;28;20199;-62
2024/01/02 00:39:10;;;;;;;1.30;0.73;;;20.90;79.40;;;;;;5010415;28;20220;-61
2024/01/02 00:41:38;;;;;;;1.17;0.93;;;20.90;79.60;;;;;;5010430;28;20210;-60
2024/01/02 00:44:05;;;;;;;1.00;0.88;;;20.90;79.40;;;;;;5011924;28;20791;-60
2024/01/02 00:46:31;;;;;;;2.20;0.90;;;20.90;79.50;;;;;;5011665;28;20210;-62
2024/01/02 00:49:03;;;;;;;2.20;1.00;;;20.90;79.50;;;;;;5011353;28;20500;-62
2024/01/02 00:51:29;;;;;;;1.23;0.80;;;21.00;79.80;;;;;;5012748;28;20285;-61
2024/01/02 00:54:00;;;;;;;1.90;1.20;;;21.00;79.70;;;;;;5013214;28;20329;-61
2024/01/02 00:56:26;;;;;;;1.50;1.17;;;20.90;79.50;;;;;;5010331;28;20550;-61
2024/01/02 00:58:53;;;;;;;1.10;0.80;;;20.90;79.80;;;;;;5010936;28;20490;-62
2024/01/02 01:01:23;;;;;;;1.23;0.80;;;20.90;79.60;;;;;;5012482;28;20203;-62
2024/01/02 01:03:50;;;;;;;1.20;1.00;;;20.90;79.60;;;;;;5011559;28;20675;-61
2024/01/02 01:06:19;;;;;;;1.20;0.95;;;20.90;79.60;;;;;;5014403;28;20230;-62
2024/01/02 01:08:49;;;;;;;1.48;1.13;;;20.90;79.70;;;;;;5010732;28;20544;-62
2024/01/02 01:11:18;;;;;;;2.13;1.10;;;20.90;79.60;;;;;;5009380;28;20203;-61
2024/01/02 01:13:45;;;;;;;1.58;1.10;;;20.90;79.70;;;;;;5005473;28;20707;-61
2024/01/02 01:16:16;;;;;;;1.40;1.08;;;20.90;79.60;;;;;;5009146;28;20821;-62
2024/01/02 01:18:43;;;;;;;1.40;0.93;;;20.90;79.60;;;;;;5007230;28;20217;-61
2024/01/02 01:21:09;;;;;;;1.35;1.15;;;20.90;79.60;;;;;;5009349;28;20563;-62
2024/01/02 01:23:36;;;;;;;1.10;0.82;;;20.80;79.80;;;;;;5006273;28;20195;-61
2024/01/02 01:26:03;;;;;;;1.65;0.90;;;20.90;79.60;;;;;;4993346;28;20226;-61
2024/01/02 01:28:41;;;;;;;1.08;0.77;;;20.80;79.70;;;;;;5007911;28;20368;-62
2024/01/02 01:31:13;;;;;;;1.43;1.20;;;20.80;79.70;;;;;;5010827;28;20662;-61
2024/01/02 01:33:40;;;;;;;1.30;0.88;;;20.80;79.90;;;;;;5011718;28;20469;-61
2024/01/02 01:36:07;;;;;;;1.77;1.42;;;20.90;79.60;;;;;;5011302;28;20204;-60
2024/01/02 01:38:34;;;;;;;1.10;0.70;;;20.80;80.40;;;;;;5007293;28;20220;-61
2024/01/02 01:41:00;;;;;;;2.00;1.00;;;20.80;79.70;;;;;;5011811;28;20205;-63
2024/01/02 01:43:28;;;;;;;1.60;1.00;;;20.80;79.90;;;;;;5009356;28;20211;-61
2024/01/02 01:45:57;;;;;;;1.00;0.80;;;20.80;79.80;;;;;;5009659;28;20192;-61
2024/01/02 01:48:24;;;;;;;1.83;0.90;;;20.80;79.70;;;;;;5012170;28;20229;-61
2024/01/02 01:50:58;;;;;;;1.20;0.90;;;20.80;79.80;;;;;;5011206;28;20461;-61
2024/01/02 01:53:30;;;;;;;1.08;0.80;;;20.80;79.80;;;;;;5010019;28;20275;-62
2024/01/02 01:55:59;;;;;;;1.38;0.70;;;20.80;79.80;;;;;;5009525;28;20207;-62
2024/01/02 01:58:28;;;;;;;1.40;1.08;;;20.80;79.90;;;;;;5007255;28;20195;-61
2024/01/02 02:00:56;;;;;;;1.20;0.90;;;20.70;79.70;;;;;;5010288;28;20204;-61
2024/01/02 02:03:27;;;;;;;1.10;0.80;;;20.80;79.80;;;;;;5012998;28;20334;-61
2024/01/02 02:05:59;;;;;;;1.40;0.80;;;20.80;79.60;;;;;;5009054;28;20200;-62
2024/01/02 02:08:29;;;;;;;1.07;0.97;;;20.70;79.80;;;;;;5009308;28;20210;-61
2024/01/02 02:10:56;;;;;;;1.63;0.93;;;20.70;79.60;;;;;;5005941;28;20459;-60
2024/01/02 02:13:23;;;;;;;1.10;0.80;;;20.70;79.60;;;;;;5009478;28;20218;-62
2024/01/02 02:15:51;;;;;;;1.35;0.82;;;20.70;79.90;;;;;;5008174;28;20727;-61
2024/01/02 02:18:22;;;;;;;1.70;0.80;;;20.70;79.80;;;;;;5009150;28;20206;-61
2024/01/02 02:20:49;;;;;;;1.08;0.80;;;20.70;79.80;;;;;;5005975;28;20578;-61
2024/01/02 02:23:28;;;;;;;0.90;0.70;;;20.70;79.70;;;;;;5008689;28;20205;-63
2024/01/02 02:25:57;;;;;;;1.10;0.80;;;20.70;79.60;;;;;;5009158;28;20191;-62
2024/01/02 02:28:24;;;;;;;0.90;0.70;;;20.70;79.80;;;;;;5010858;28;20203;-61
2024/01/02 02:30:53;;;;;;;1.10;0.90;;;20.70;79.60;;;;;;5008241;28;20202;-61
2024/01/02 02:33:23;;;;;;;1.10;0.82;;;20.70;79.80;;;;;;5009752;28;20199;-62
2024/01/02 02:35:50;;;;;;;1.38;0.95;;;20.70;79.80;;;;;;5009120;28;20690;-62
2024/01/02 02:38:20;;;;;;;1.03;0.80;;;20.70;79.90;;;;;;5006347;28;20228;-62
2024/01/02 02:40:49;;;;;;;1.20;0.73;;;20.70;79.70;;;;;;5011676;28;20528;-62
2024/01/02 02:43:19;;;;;;;1.30;1.00;;;20.70;79.90;;;;;;5007884;28;20219;-62
2024/01/02 02:45:49;;;;;;;2.28;0.95;;;20.70;79.90;;;;;;5010334;28;20191;-62
2024/01/02 02:48:19;;;;;;;1.15;0.70;;;20.70;79.80;;;;;;5012103;28;20602;-59
2024/01/02 02:50:48;;;;;;;1.30;0.80;;;20.60;79.70;;;;;;5011450;28;20198;-62
2024/01/02 02:53:20;;;;;;;1.63;0.90;;;20.60;79.50;;;;;;5007188;28;20206;-61
2024/01/02 02:55:47;;;;;;;1.05;0.80;;;20.60;79.50;;;;;;5007185;28;20638;-62
2024/01/02 02:58:15;;;;;;;1.38;0.90;;;20.60;79.50;;;;;;5010699;28;20206;-62
2024/01/02 03:00:43;;;;;;;2.15;0.88;;;20.60;79.70;;;;;;5008393;28;20218;-62
2024/01/02 03:03:14;;;;;;;0.90;0.70;;;20.60;79.60;;;;;;5006943;28;21497;-62
2024/01/02 03:05:41;;;;;;;1.30;0.80;;;20.60;79.60;;;;;;5013011;28;20195;-62
2024/01/02 03:08:19;;;;;;;1.23;0.70;;;20.60;79.60;;;;;;5011341;28;20548;-62
2024/01/02 03:10:49;;;;;;;1.10;0.85;;;20.60;79.80;;;;;;5008301;28;20199;-62
2024/01/02 03:13:18;;;;;;;1.00;0.77;;;20.60;79.60;;;;;;5011080;28;20595;-62
2024/01/02 03:15:44;;;;;;;1.42;1.00;;;20.60;79.70;;;;;;5004627;28;20637;-60
2024/01/02 03:18:11;;;;;;;1.00;0.70;;;20.60;79.70;;;;;;5011143;28;20209;-62
2024/01/02 03:20:39;;;;;;;1.35;0.98;;;20.60;79.60;;;;;;5009509;28;20226;-62
2024/01/02 03:23:06;;;;;;;1.10;0.80;;;20.60;79.60;;;;;;5004352;28;21147;-62
2024/01/02 03:25:40;;;;;;;1.20;0.80;;;20.60;79.50;;;;;;5001215;28;20206;-60
2024/01/02 03:28:15;;;;;;;0.98;0.70;;;20.60;79.50;;;;;;5008823;28;20194;-62
2024/01/02 03:30:42;;;;;;;2.30;0.97;;;20.60;79.70;;;;;;4994832;28;20195;-61
2024/01/02 03:33:12;;;;;;;1.10;0.70;;;20.60;79.70;;;;;;4998073;28;21954;-61
2024/01/02 03:35:41;;;;;;;1.05;0.85;;;20.60;79.60;;;;;;5005560;28;20207;-62
2024/01/02 03:38:09;;;;;;;1.15;0.70;;;20.60;79.60;;;;;;5008757;28;20203;-62
2024/01/02 03:40:37;;;;;;;1.10;0.73;;;20.60;79.60;;;;;;5002135;28;20206;-60
2024/01/02 03:43:04;;;;;;;1.20;0.90;;;20.60;79.60;;;;;;5011473;28;20290;-62
2024/01/02 03:45:34;;;;;;;1.10;0.90;;;20.60;79.60;;;;;;5008179;28;20207;-61
2024/01/02 03:48:01;;;;;;;0.90;0.68;;;20.60;79.70;;;;;;5009503;28;20215;-61
2024/01/02 03:50:30;;;;;;;1.20;0.80;;;20.60;79.50;;;;;;5008069;28;20559;-62
2024/01/02 03:53:02;;;;;;;1.52;0.90;;;20.60;79.60;;;;;;5008658;28;20200;-60
2024/01/02 03:55:30;;;;;;;0.95;0.68;;;20.60;79.70;;;;;;5009085;28;20203;-62
2024/01/02 03:57:57;;;;;;;1.15;1.00;;;20.50;79.50;;;;;;5005783;28;20208;-61
2024/01/02 04:00:23;;;;;;;1.00;0.70;;;20.60;79.60;;;;;;5008673;28;20364;-62
2024/01/02 04:02:51;;;;;;;0.90;0.70;;;20.50;79.60;;;;;;5007521;28;21085;-61
2024/01/02 04:05:18;;;;;;;1.15;0.90;;;20.50;79.40;;;;;;5009286;28;20342;-62
2024/01/02 04:07:51;;;;;;;1.17;0.70;;;20.50;79.60;;;;;;5007328;28;20191;-62
2024/01/02 04:10:21;;;;;;;1.73;0.88;;;20.50;79.60;;;;;;5010482;28;20325;-61
2024/01/02 04:12:47;;;;;;;1.00;0.70;;;20.50;79.40;;;;;;5007105;28;20540;-62
2024/01/02 04:15:14;;;;;;;1.08;0.85;;;20.50;79.50;;;;;;4999230;28;20200;-61
2024/01/02 04:17:43;;;;;;;0.90;0.70;;;20.50;79.70;;;;;;5009657;28;20204;-62
2024/01/02 04:20:12;;;;;;;1.00;0.70;;;20.50;79.60;;;;;;5008826;28;20232;-61
2024/01/02 04:22:40;;;;;;;1.65;1.00;;;20.50;79.30;;;;;;5003035;28;20199;-61
2024/01/02 04:25:08;;;;;;;1.40;0.75;;;20.50;79.50;;;;;;5006384;28;20294;-62
2024/01/02 04:27:36;;;;;;;1.65;0.77;;;20.50;79.50;;;;;;5007377;28;20195;-61
2024/01/02 04:30:06;;;;;;;0.98;0.70;;;20.50;79.50;;;;;;5008566;28;20200;-61
2024/01/02 04:32:33;;;;;;;1.30;0.80;;;20.50;79.50;;;;;;5008026;28;20196;-61
2024/01/02 04:35:01;;;;;;;1.25;0.80;;;20.50;79.50;;;;;;5006287;28;20196;-63
2024/01/02 04:37:30;;;;;;;1.05;0.80;;;20.50;79.60;;;;;;4993075;28;20207;-61
2024/01/02 04:39:59;;;;;;;1.48;0.70;;;20.50;79.50;;;;;;5002228;28;20552;-59
2024/01/02 04:42:26;;;;;;;1.00;0.80;;;20.50;79.50;;;;;;5004992;28;20211;-61
2024/01/02 04:44:55;;;;;;;1.55;0.80;;;20.50;79.50;;;;;;5001160;28;20199;-61
2024/01/02 04:47:22;;;;;;;1.00;0.70;;;20.50;79.60;;;;;;5011718;28;20204;-61
2024/01/02 04:49:49;;;;;;;1.35;0.80;;;20.50;79.50;;;;;;5009546;28;20856;-62
2024/01/02 04:52:17;;;;;;;1.00;0.60;;;20.50;79.30;;;;;;5008068;28;20347;-59
2024/01/02 04:54:46;;;;;;;0.90;0.70;;;20.40;79.30;;;;;;5008139;28;20863;-62
2024/01/02 04:57:15;;;;;;;1.00;0.75;;;20.40;79.30;;;;;;5009006;28;22328;-61
2024/01/02 04:59:42;;;;;;;1.00;0.70;;;20.40;79.30;;;;;;5005328;28;20223;-61
2024/01/02 05:02:09;;;;;;;1.20;0.80;;;20.50;79.50;;;;;;5012158;28;20202;-62
2024/01/02 05:04:36;;;;;;;0.90;0.70;;;20.40;79.50;;;;;;5013804;28;20506;-62
2024/01/02 05:07:12;;;;;;;0.90;0.65;;;20.40;79.60;;;;;;5010064;28;20926;-61
2024/01/02 05:09:40;;;;;;;1.08;0.70;;;20.40;79.50;;;;;;5006954;28;20585;-61
2024/01/02 05:12:10;;;;;;;1.10;0.70;;;20.40;79.40;;;;;;5011806;28;20289;-62
2024/01/02 05:14:38;;;;;;;2.70;0.70;;;20.40;79.30;;;;;;5009682;28;20191;-62
2024/01/02 05:17:07;;;;;;;1.45;0.88;;;20.40;79.60;;;;;;5009840;28;20556;-63
2024/01/02 05:19:37;;;;;;;1.15;0.73;;;20.40;79.40;;;;;;5007042;28;20192;-61
2024/01/02 05:22:07;;;;;;;0.90;0.68;;;20.50;79.50;;;;;;5008812;28;20202;-62
2024/01/02 05:24:35;;;;;;;1.00;0.70;;;20.40;79.40;;;;;;5006845;28;20237;-62
2024/01/02 05:27:02;;;;;;;1.25;0.75;;;20.40;79.20;;;;;;5011734;28;20227;-61
2024/01/02 05:29:32;;;;;;;1.05;0.75;;;20.40;79.50;;;;;;5009676;28;20200;-61
2024/01/02 05:32:05;;;;;;;0.90;0.60;;;20.40;79.50;;;;;;5013750;28;20195;-62
2024/01/02 05:34:32;;;;;;;0.98;0.70;;;20.40;79.50;;;;;;5009859;28;20206;-61
2024/01/02 05:36:58;;;;;;;1.33;0.70;;;20.40;79.60;;;;;;5012967;28;20192;-60
2024/01/02 05:39:28;;;;;;;1.20;0.70;;;20.40;79.70;;;;;;5013505;28;20488;-63
2024/01/02 05:41:54;;;;;;;0.90;0.68;;;20.40;79.70;;;;;;5012756;28;20752;-61
2024/01/02 05:44:31;;;;;;;2.65;1.15;;;20.40;79.70;;;;;;5014175;28;20234;-63
2024/01/02 05:47:01;;;;;;;1.00;0.70;;;20.40;79.80;;;;;;5013126;28;20199;-62
2024/01/02 05:49:28;;;;;;;1.30;1.05;;;20.40;79.60;;;;;;5010523;28;20198;-61
2024/01/02 05:51:56;;;;;;;1.15;0.75;;;20.40;79.80;;;;;;5011405;28;20191;-62
2024/01/02 05:54:25;;;;;;;1.35;0.60;;;20.40;79.60;;;;;;5011260;28;20210;-62
2024/01/02 05:56:52;;;;;;;1.02;0.80;;;20.40;79.70;;;;;;5011636;28;20199;-61
2024/01/02 05:59:24;;;;;;;1.45;0.80;;;20.40;79.80;;;;;;5010201;28;20655;-61
2024/01/02 06:01:52;;;;;;;1.08;0.70;;;20.40;79.80;;;;;;5011948;28;20219;-63
2024/01/02 06:04:19;;;;;;;1.10;0.60;;;20.40;79.90;;;;;;5013693;28;20203;-61
2024/01/02 06:06:48;;;;;;;1.00;0.70;;;20.40;79.90;;;;;;5006598;28;20678;-61
2024/01/02 06:09:18;;;;;;;0.95;0.85;;;20.40;79.90;;;;;;5012829;28;20458;-62
2024/01/02 06:11:45;;;;;;;1.15;0.70;;;20.40;79.90;;;;;;5012661;28;20743;-62
2024/01/02 06:14:11;;;;;;;0.98;0.77;;;20.40;80.00;;;;;;5010204;28;20209;-62
2024/01/02 06:16:40;;;;;;;0.98;0.80;;;20.40;79.90;;;;;;5012146;28;20198;-62
2024/01/02 06:19:17;;;;;;;1.35;0.77;;;20.40;79.80;;;;;;5011882;28;20191;-62
2024/01/02 06:21:47;;;;;;;0.90;0.77;;;20.40;80.10;;;;;;5010275;28;20740;-62
2024/01/02 06:24:14;;;;;;;0.98;0.68;;;20.40;79.80;;;;;;5008812;28;20195;-61
2024/01/02 06:26:42;;;;;;;1.00;0.70;;;20.30;79.70;;;;;;5010619;28;20195;-62
2024/01/02 06:29:09;;;;;;;0.90;0.70;;;20.30;79.80;;;;;;5012571;28;20732;-61
2024/01/02 06:31:36;;;;;;;1.00;0.73;;;20.30;80.10;;;;;;5011739;28;20198;-62
2024/01/02 06:34:03;;;;;;;0.90;0.60;;;20.30;79.80;;;;;;5012170;28;20199;-62
2024/01/02 06:36:33;;;;;;;1.05;0.75;;;20.30;80.00;;;;;;5011449;28;20211;-62
2024/01/02 06:38:59;;;;;;;1.17;0.80;;;20.30;80.10;;;;;;5011489;28;20544;-61
2024/01/02 06:41:28;;;;;;;0.93;0.63;;;20.30;80.00;;;;;;5014320;28;20619;-62
2024/01/02 06:43:57;;;;;;;1.00;0.70;;;20.30;80.10;;;;;;5011774;28;20191;-62
2024/01/02 06:46:29;;;;;;;1.00;0.80;;;20.30;80.20;;;;;;5014746;28;20615;-62
2024/01/02 06:48:57;;;;;;;1.10;0.80;;;20.30;80.10;;;;;;5010723;28;20199;-62
2024/01/02 06:51:28;;;;;;;1.10;0.80;;;20.40;80.10;;;;;;5007795;28;29813;-62
2024/01/02 06:53:59;;;;;;;1.08;0.70;;;20.30;80.20;;;;;;5010410;28;20667;-63
2024/01/02 06:56:32;;;;;;;1.10;0.93;;;20.30;80.10;;;;;;5014280;28;20203;-59
2024/01/02 06:58:57;;;;;;;1.10;0.70;;;20.30;80.00;;;;;;5005598;28;20195;-57
2024/01/02 07:01:27;;;;;;;1.27;0.80;;;20.30;80.00;;;;;;5007300;28;20385;-61
2024/01/02 07:04:03;;;;;;;1.10;0.70;;;20.30;80.00;;;;;;5009761;28;20194;-60
2024/01/02 07:06:35;;;;;;;1.00;0.70;;;20.30;80.20;;;;;;5009166;28;20199;-61
2024/01/02 07:09:03;;;;;;;0.90;0.60;;;20.30;80.00;;;;;;5003882;28;20196;-60
2024/01/02 07:11:31;;;;;;;0.90;0.70;;;20.30;80.20;;;;;;5008920;28;20204;-60
2024/01/02 07:13:58;;;;;;;0.90;0.63;;;20.30;80.30;;;;;;5005525;28;20199;-59
2024/01/02 07:16:26;;;;;;;1.00;0.70;;;20.20;80.10;;;;;;5010816;28;20282;-59
2024/01/02 07:18:52;;;;;;;1.10;0.70;;;20.20;80.00;;;;;;5007233;28;20694;-61
2024/01/02 07:21:18;;;;;;;1.10;0.70;;;20.20;80.50;;;;;;5002978;28;20668;-62
2024/01/02 07:23:45;;;;;;;1.40;1.30;;;20.20;80.60;;;;;;5004738;28;20852;-62
2024/01/02 07:26:14;;;;;;;1.90;0.80;;;20.20;80.60;;;;;;5005671;28;20201;-62
2024/01/02 07:28:41;;;;;;;5.30;1.10;;;20.20;80.90;;;;;;5000056;28;20202;-61
2024/01/02 07:31:09;;;;;;;4.25;3.80;;;20.20;81.10;;;;;;5004795;28;20204;-60
2024/01/02 07:33:38;;;;;;;2.95;1.00;;;20.20;81.70;;;;;;5006178;28;20655;-56
2024/01/02 07:36:07;;;;;;;1.88;0.80;;;20.30;81.70;;;;;;5007167;28;20211;-61
2024/01/02 07:38:35;;;;;;;2.65;1.05;;;20.30;81.70;;;;;;5008726;28;20499;-60
2024/01/02 07:41:06;;;;;;;1.20;0.70;;;20.30;82.00;;;;;;5008508;28;20223;-61
2024/01/02 07:43:34;;;;;;;1.40;0.90;;;20.30;81.90;;;;;;5003113;28;20286;-60
2024/01/02 07:46:06;;;;;;;0.90;0.60;;;20.30;82.50;;;;;;5008877;28;20200;-59
2024/01/02 07:48:35;;;;;;;1.10;0.73;;;20.30;82.30;;;;;;5003593;28;20674;-60
2024/01/02 07:51:05;;;;;;;2.08;0.70;;;20.40;82.30;;;;;;5006155;28;20532;-59
2024/01/02 07:53:35;;;;;;;2.20;0.75;;;20.40;82.40;;;;;;4999619;28;20203;-59
2024/01/02 07:56:09;;;;;;;2.28;0.90;;;20.40;82.30;;;;;;5007698;28;20222;-61
2024/01/02 07:58:37;;;;;;;1.30;0.60;;;20.40;82.20;;;;;;5009444;28;20190;-61
2024/01/02 08:01:04;;;;;;;1.58;0.80;;;20.40;81.90;;;;;;5007452;28;20210;-60
2024/01/02 08:03:32;;;;;;;1.40;0.85;;;20.40;82.20;;;;;;5008164;28;20192;-61
2024/01/02 08:06:00;;;;;;;0.90;0.63;;;20.40;82.00;;;;;;5006906;28;20682;-61
2024/01/02 08:08:27;;;;;;;3.13;0.80;;;20.40;82.10;;;;;;5001500;28;20344;-60
2024/01/02 08:10:55;;;;;;;1.10;0.70;;;20.50;82.30;;;;;;5003294;28;20227;-61
2024/01/02 08:13:26;;;;;;;7.78;0.90;;;20.50;82.30;;;;;;5002471;28;20228;-58
2024/01/02 08:15:57;;;;;;;2.10;1.25;;;20.50;82.30;;;;;;4998744;28;20203;-61
2024/01/02 08:18:28;;;;;;;1.45;0.88;;;20.50;82.40;;;;;;5011736;28;20208;-62
2024/01/02 08:21:00;;;;;;;4.10;0.77;;;20.50;82.10;;;;;;5006603;28;20217;-61
2024/01/02 08:23:27;;;;;;;1.00;0.80;;;20.50;82.30;;;;;;5009413;28;20199;-60
2024/01/02 08:25:58;;;;;;;1.17;0.82;;;20.50;82.00;;;;;;5008270;28;20203;-62
2024/01/02 08:28:25;;;;;;;0.85;0.60;;;20.50;82.10;;;;;;5004756;28;20194;-54
2024/01/02 08:30:52;;;;;;;2.28;0.80;;;20.60;82.10;;;;;;5009074;28;20294;-54
2024/01/02 08:33:30;;;;;;;3.67;0.80;;;20.60;82.10;;;;;;5008878;28;20611;-55
2024/01/02 08:35:57;;;;;;;1.00;0.80;;;20.60;82.50;;;;;;5017246;28;20187;-59
2024/01/02 08:38:24;;;;;;;2.30;0.82;;;20.60;82.40;;;;;;5013639;28;20191;-58
2024/01/02 08:40:52;;;;;;;1.38;0.88;;;20.60;82.10;;;;;;5012824;28;20202;-55
2024/01/02 08:43:19;;;;;;;1.23;0.73;;;20.60;81.90;;;;;;5011480;28;20206;-54
2024/01/02 08:45:46;;;;;;;1.25;0.80;;;20.60;82.10;;;;;;5013069;28;20223;-54
2024/01/02 08:48:13;;;;;;;2.05;0.80;;;20.60;81.90;;;;;;5015666;28;20217;-57
2024/01/02 08:50:43;;;;;;;1.10;0.70;;;20.60;82.00;;;;;;5016559;28;20291;-56
2024/01/02 08:53:13;;;;;;;1.20;0.80;;;20.60;81.90;;;;;;5014552;28;20195;-57
2024/01/02 08:55:41;;;;;;;3.65;0.80;;;20.60;81.90;;;;;;5013785;28;20195;-56
2024/01/02 08:58:12;;;;;;;0.90;0.60;;;20.60;81.80;;;;;;5014860;28;20199;-57
2024/01/02 09:00:40;;;;;;;1.85;0.82;;;20.60;81.90;;;;;;5006856;28;20325;-58
2024/01/02 09:03:08;;;;;;;0.90;0.68;;;20.60;81.90;;;;;;5016130;28;20533;-54
2024/01/02 09:05:40;;;;;;;1.73;0.70;;;20.60;82.10;;;;;;5010587;28;20501;-57
2024/01/02 09:08:12;;;;;;;0.93;0.60;;;20.60;81.90;;;;;;5012225;28;20197;-56
2024/01/02 09:10:39;;;;;;;3.58;0.80;;;20.60;82.00;;;;;;5014315;28;20290;-58
2024/01/02 09:13:12;;;;;;;0.90;0.60;;;20.60;81.70;;;;;;5006891;28;20306;-57
2024/01/02 09:15:47;;;;;;;1.63;0.70;;;20.60;81.70;;;;;;5008604;28;20200;-55
2024/01/02 09:18:14;;;;;;;1.00;0.70;;;20.60;81.90;;;;;;5013009;28;20222;-56
2024/01/02 09:20:44;;;;;;;0.97;0.70;;;20.60;81.60;;;;;;5009446;28;20199;-57
2024/01/02 09:23:20;;;;;;;1.27;0.80;;;20.60;81.70;;;;;;5006438;28;20464;-55
2024/01/02 09:25:49;;;;;;;1.13;0.70;;;20.60;81.60;;;;;;5011280;28;20210;-52
2024/01/02 09:28:21;;;;;;;1.90;0.77;;;20.60;81.80;;;;;;5008995;28;20706;-58
2024/01/02 09:30:52;;;;;;;0.90;0.60;;;20.60;81.90;;;;;;5013720;28;20195;-57
2024/01/02 09:33:20;;;;;;;2.63;0.80;;;20.60;82.10;;;;;;5017305;28;21104;-58
2024/01/02 09:35:51;;;;;;;1.30;0.80;;;20.60;82.00;;;;;;5013044;28;20203;-57
2024/01/02 09:38:22;;;;;;;1.20;0.70;;;20.60;81.80;;;;;;5011869;28;20199;-54
2024/01/02 09:41:12;;;;;;;1.95;0.70;;;20.60;82.00;;;;;;5007429;28;20185;-57
2024/01/02 09:43:54;;;;;;;1.10;0.70;;;20.60;82.00;;;;;;5007115;28;20199;-58
2024/01/02 09:46:30;;;;;;;1.00;0.80;;;20.60;82.00;;;;;;5007299;28;20226;-58
2024/01/02 09:49:11;;;;;;;0.90;0.60;;;20.70;82.00;;;;;;5009866;28;20195;-57
2024/01/02 09:51:49;;;;;;;1.00;0.60;;;20.60;82.00;;;;;;5004300;28;20201;-57
2024/01/02 09:54:32;;;;;;;1.17;0.60;;;20.60;81.80;;;;;;5002097;28;20195;-58
2024/01/02 09:57:09;;;;;;;0.90;0.60;;;20.60;82.20;;;;;;5011219;28;20187;-57
2024/01/02 09:59:49;;;;;;;1.00;0.63;;;20.60;81.90;;;;;;5005071;28;20626;-58
2024/01/02 10:02:39;;;;;;;0.90;0.60;;;20.70;81.80;;;;;;5000763;28;20917;-57
2024/01/02 10:05:20;;;;;;;1.90;0.60;;;20.70;82.10;;;;;;5003349;28;20204;-56
2024/01/02 10:08:06;;;;;;;0.90;0.60;;;20.60;81.90;;;;;;5006000;28;20191;-57
2024/01/02 10:10:52;;;;;;;0.90;0.63;;;20.60;82.00;;;;;;5007155;28;20539;-53
2024/01/02 10:13:24;;;;;;;2.15;0.80;;;20.60;82.10;;;;;;5009829;28;20417;-55
2024/01/02 10:16:05;;;;;;;2.30;0.70;;;20.60;82.10;;;;;;5007744;28;20188;-58
2024/01/02 10:18:53;;;;;;;1.45;1.25;;;20.60;82.30;;;;;;5002283;28;20354;-55
2024/01/02 10:21:29;;;;;;;0.90;0.60;;;20.60;82.20;;;;;;5004004;28;20952;-59
2024/01/02 10:24:05;;;;;;;1.10;0.70;;;20.60;82.30;;;;;;4999030;28;20195;-57
2024/01/02 10:26:44;;;;;;;1.20;0.70;;;20.50;82.40;;;;;;5008322;28;20288;-56
2024/01/02 10:29:18;;;;;;;1.70;0.63;;;20.50;82.40;;;;;;4999755;28;20204;-58
2024/01/02 10:31:56;;;;;;;1.05;0.77;;;20.50;82.50;;;;;;5003106;28;20202;-56
2024/01/02 10:34:33;;;;;;;1.30;0.80;;;20.50;82.60;;;;;;5006110;28;20202;-58
2024/01/02 10:37:09;;;;;;;0.95;0.65;;;20.50;82.80;;;;;;5001436;28;20198;-56
2024/01/02 10:39:43;;;;;;;1.10;0.70;;;20.50;82.80;;;;;;4998037;28;20202;-56
2024/01/02 10:42:33;;;;;;;1.65;0.68;;;20.50;82.60;;;;;;4996916;28;20674;-54
2024/01/02 10:45:18;;;;;;;1.70;0.80;;;20.50;82.80;;;;;;5002892;28;20563;-56
2024/01/02 10:48:01;;;;;;;2.00;0.70;;;20.50;82.80;;;;;;5002452;28;20215;-56
2024/01/02 10:50:38;;;;;;;1.00;0.70;;;20.50;82.60;;;;;;5003658;28;20206;-56
2024/01/02 10:53:17;;;;;;;1.15;0.70;;;20.50;83.40;;;;;;5000886;28;20608;-58
2024/01/02 10:55:50;;;;;;;1.30;0.80;;;20.50;82.70;;;;;;5008860;28;20816;-57
2024/01/02 10:58:23;;;;;;;1.60;0.68;;;20.50;82.50;;;;;;5005213;28;20203;-58
2024/01/02 11:01:03;;;;;;;0.93;0.60;;;20.50;82.70;;;;;;5008957;28;20322;-56
2024/01/02 11:03:35;;;;;;;0.85;0.60;;;20.50;82.90;;;;;;5003013;28;20311;-56
2024/01/02 11:06:09;;;;;;;2.40;0.75;;;20.50;82.60;;;;;;5008808;28;20191;-55
2024/01/02 11:08:46;;;;;;;1.00;0.70;;;20.50;82.80;;;;;;5003250;28;20255;-57
2024/01/02 11:11:14;;;;;;;1.08;0.75;;;20.60;82.60;;;;;;5000032;28;20243;-55
2024/01/02 11:13:46;;;;;;;0.95;0.60;;;20.60;82.70;;;;;;5004541;28;20203;-55
2024/01/02 11:16:17;;;;;;;0.80;0.60;;;20.60;82.40;;;;;;5010680;28;20205;-57
2024/01/02 11:18:47;;;;;;;0.90;0.60;;;20.60;82.50;;;;;;5004992;28;20782;-55
2024/01/02 11:21:21;;;;;;;1.25;0.70;;;20.60;82.30;;;;;;5005317;28;20845;-52
2024/01/02 11:23:53;;;;;;;1.48;0.80;;;20.60;82.40;;;;;;4999722;28;20267;-55
2024/01/02 11:26:24;;;;;;;1.52;0.70;;;20.60;82.40;;;;;;5005722;28;20240;-56
2024/01/02 11:28:53;;;;;;;1.35;0.60;;;20.60;82.30;;;;;;5010474;28;20206;-57
2024/01/02 11:31:26;;;;;;;1.00;0.75;;;20.60;82.40;;;;;;5006731;28;20203;-58
2024/01/02 11:34:07;;;;;;;1.10;0.80;;;20.60;82.50;;;;;;5009645;28;20199;-55
2024/01/02 11:36:59;;;;;;;0.90;0.60;;;20.50;82.50;;;;;;5010141;28;20203;-54
2024/01/02 11:39:37;;;;;;;5.38;1.33;;;20.50;82.50;;;;;;5005102;28;20206;-55
2024/01/02 11:42:13;;;;;;;0.90;0.65;;;20.50;82.60;;;;;;5005629;28;20215;-58
2024/01/02 11:44:49;;;;;;;0.90;0.60;;;20.50;82.70;;;;;;5004331;28;20243;-57
2024/01/02 11:47:28;;;;;;;0.90;0.60;;;20.50;82.80;;;;;;5008913;28;20214;-56
2024/01/02 11:50:02;;;;;;;1.35;0.70;;;20.50;82.80;;;;;;5008779;28;20200;-57
2024/01/02 11:52:35;;;;;;;1.17;0.70;;;20.50;82.80;;;;;;5002212;28;20722;-57
2024/01/02 11:55:15;;;;;;;1.55;0.60;;;20.50;82.80;;;;;;5010271;28;20760;-57
2024/01/02 11:57:51;;;;;;;0.93;0.75;;;20.50;82.80;;;;;;5006725;28;20202;-57
2024/01/02 12:00:29;;;;;;;1.30;0.93;;;20.50;82.80;;;;;;5005356;28;20705;-55
2024/01/02 12:03:03;;;;;;;1.30;0.60;;;20.50;82.90;;;;;;5008059;28;20587;-56
2024/01/02 12:05:44;;;;;;;0.90;0.70;;;20.50;82.80;;;;;;5007291;28;20449;-58
2024/01/02 12:08:13;;;;;;;1.00;0.60;;;20.50;83.00;;;;;;5010596;28;20203;-57
2024/01/02 12:10:49;;;;;;;1.00;0.70;;;20.50;83.00;;;;;;5005117;28;20336;-56
2024/01/02 12:13:26;;;;;;;0.90;0.60;;;20.50;82.80;;;;;;5006470;28;20211;-57
2024/01/02 12:15:55;;;;;;;1.10;0.60;;;20.50;83.00;;;;;;5009356;28;20596;-54
2024/01/02 12:18:23;;;;;;;1.08;0.80;;;20.40;83.10;;;;;;5010360;28;20196;-54
2024/01/02 12:21:00;;;;;;;0.90;0.60;;;20.50;82.90;;;;;;5007003;28;20203;-56
2024/01/02 12:23:31;;;;;;;1.08;0.70;;;20.50;83.20;;;;;;5006714;28;20223;-55
2024/01/02 12:26:11;;;;;;;1.10;0.70;;;20.50;83.00;;;;;;5004120;28;20195;-53
2024/01/02 12:28:44;;;;;;;1.02;0.63;;;20.50;83.20;;;;;;5003249;28;20198;-54
2024/01/02 12:31:27;;;;;;;0.87;0.60;;;20.50;83.30;;;;;;5001298;28;20206;-53
2024/01/02 12:34:08;;;;;;;1.00;0.60;;;20.50;83.20;;;;;;5002517;28;20822;-54
2024/01/02 12:36:45;;;;;;;0.90;0.70;;;20.50;83.00;;;;;;5004800;28;20203;-54
2024/01/02 12:39:17;;;;;;;1.40;0.67;;;20.50;83.30;;;;;;5003142;28;20915;-52
2024/01/02 12:41:55;;;;;;;1.00;0.70;;;20.50;83.20;;;;;;5003592;28;21175;-54
2024/01/02 12:44:25;;;;;;;0.80;0.60;;;20.50;83.00;;;;;;5006977;28;20553;-54
2024/01/02 12:46:59;;;;;;;1.45;0.70;;;20.50;83.00;;;;;;5001996;28;20214;-53
2024/01/02 12:49:28;;;;;;;1.80;0.60;;;20.60;83.10;;;;;;5005104;28;20317;-58
2024/01/02 12:52:02;;;;;;;2.88;0.60;;;20.60;83.30;;;;;;5005540;28;20564;-56
2024/01/02 12:54:39;;;;;;;1.05;0.60;;;20.60;83.00;;;;;;5000732;28;20639;-56
2024/01/02 12:57:09;;;;;;;1.17;0.80;;;20.60;84.10;;;;;;5004685;28;20199;-54
2024/01/02 12:59:40;;;;;;;1.63;0.90;;;20.60;83.00;;;;;;5000686;28;20199;-55
2024/01/02 13:02:10;;;;;;;1.98;0.90;;;20.60;83.40;;;;;;5003701;28;20254;-53
2024/01/02 13:04:48;;;;;;;1.00;0.60;;;20.60;83.00;;;;;;5008696;28;20543;-52
2024/01/02 13:07:24;;;;;;;2.80;0.80;;;20.60;83.10;;;;;;5007849;28;20660;-58